createdAt,value
2023-04-23T00:01:07.191Z,8.40
2023-04-23T00:03:34.690Z,8.30
2023-04-23T00:06:05.774Z,8.30
2023-04-23T00:08:33.352Z,8.30
2023-04-23T00:11:00.352Z,8.30
2023-04-23T00:13:27.358Z,8.30
2023-04-23T00:15:54.356Z,8.20
2023-04-23T00:18:21.349Z,8.20
2023-04-23T00:20:48.272Z,8.10
2023-04-23T00:23:15.209Z,8.20
2023-04-23T00:25:42.041Z,8.20
2023-04-23T00:28:08.834Z,8.20
2023-04-23T00:30:35.713Z,8.20
2023-04-23T00:33:02.793Z,8.20
2023-04-23T00:35:29.598Z,8.20
2023-04-23T00:37:56.445Z,8.20
2023-04-23T00:40:23.740Z,8.10
2023-04-23T00:42:52.221Z,8.00
2023-04-23T00:45:19.547Z,8.00
2023-04-23T00:47:47.027Z,8.00
2023-04-23T00:50:13.867Z,8.00
2023-04-23T00:52:40.947Z,8.00
2023-04-23T00:55:09.030Z,7.90
2023-04-23T00:57:36.698Z,7.90
2023-04-23T01:00:05.973Z,7.80
2023-04-23T01:02:32.913Z,7.80
2023-04-23T01:05:01.277Z,7.80
2023-04-23T01:07:28.667Z,7.80
2023-04-23T01:09:55.757Z,7.70
2023-04-23T01:12:23.155Z,7.70
2023-04-23T01:14:50.220Z,7.60
2023-04-23T01:17:17.381Z,7.60
2023-04-23T01:19:44.200Z,7.50
2023-04-23T01:22:15.862Z,7.50
2023-04-23T01:24:43.015Z,7.50
2023-04-23T01:27:11.194Z,7.30
2023-04-23T01:29:38.796Z,7.30
2023-04-23T01:32:05.761Z,7.20
2023-04-23T01:34:32.963Z,7.20
2023-04-23T01:37:00.334Z,7.10
2023-04-23T01:39:27.127Z,7.10
2023-04-23T01:41:55.602Z,7.00
2023-04-23T01:44:22.444Z,7.00
2023-04-23T01:46:49.214Z,6.90
2023-04-23T01:49:16.277Z,6.80
2023-04-23T01:51:43.085Z,6.80
2023-04-23T01:54:10.006Z,6.70
2023-04-23T01:56:37.022Z,6.60
2023-04-23T01:59:03.856Z,6.50
2023-04-23T02:01:44.230Z,6.50
2023-04-23T02:04:12.054Z,6.40
2023-04-23T02:06:39.004Z,6.30
2023-04-23T02:09:05.945Z,6.30
2023-04-23T02:11:33.016Z,6.30
2023-04-23T02:14:00.153Z,6.20
2023-04-23T02:16:28.724Z,6.10
2023-04-23T02:18:55.975Z,6.10
2023-04-23T02:21:24.380Z,6.00
2023-04-23T02:23:51.978Z,5.90
2023-04-23T02:26:18.926Z,5.90
2023-04-23T02:28:46.211Z,5.80
2023-04-23T02:31:13.126Z,5.80
2023-04-23T02:33:41.380Z,5.80
2023-04-23T02:36:08.499Z,5.80
2023-04-23T02:38:35.503Z,5.80
2023-04-23T02:41:02.651Z,5.80
2023-04-23T02:43:29.456Z,5.90
2023-04-23T02:45:56.770Z,6.00
2023-04-23T02:48:24.319Z,6.00
2023-04-23T02:50:51.352Z,6.00
2023-04-23T02:53:18.100Z,5.90
2023-04-23T02:55:44.986Z,5.80
2023-04-23T02:58:11.926Z,5.80
2023-04-23T03:00:40.602Z,5.80
2023-04-23T03:03:09.019Z,5.90
2023-04-23T03:05:37.337Z,5.90
2023-04-23T03:08:04.092Z,6.00
2023-04-23T03:10:31.030Z,5.90
2023-04-23T03:12:57.836Z,5.90
2023-04-23T03:15:27.263Z,5.80
2023-04-23T03:17:54.367Z,5.80
2023-04-23T03:20:21.744Z,5.80
2023-04-23T03:22:48.707Z,5.80
2023-04-23T03:25:16.547Z,5.80
2023-04-23T03:27:44.551Z,5.70
2023-04-23T03:30:11.954Z,5.80
2023-04-23T03:32:38.943Z,5.80
2023-04-23T03:35:06.153Z,5.80
2023-04-23T03:37:33.221Z,5.80
2023-04-23T03:40:01.403Z,5.70
2023-04-23T03:42:30.421Z,5.70
2023-04-23T03:44:59.175Z,5.70
2023-04-23T03:47:27.161Z,5.70
2023-04-23T03:49:56.151Z,5.70
2023-04-23T03:52:23.302Z,5.70
2023-04-23T03:54:50.329Z,5.70
2023-04-23T03:57:18.145Z,5.70
2023-04-23T04:00:01.056Z,5.70
2023-04-23T04:02:28.959Z,5.60
2023-04-23T04:04:56.830Z,5.60
2023-04-23T04:07:24.661Z,5.60
2023-04-23T04:09:51.505Z,5.70
2023-04-23T04:12:18.441Z,5.70
2023-04-23T04:14:46.394Z,5.80
2023-04-23T04:17:15.912Z,5.80
2023-04-23T04:19:43.160Z,5.90
2023-04-23T04:22:10.016Z,5.80
2023-04-23T04:24:37.893Z,5.90
2023-04-23T04:27:05.961Z,5.90
2023-04-23T04:29:33.505Z,5.90
2023-04-23T04:32:01.398Z,5.90
2023-04-23T04:34:28.460Z,5.90
2023-04-23T04:36:55.277Z,5.90
2023-04-23T04:39:22.124Z,5.90
2023-04-23T04:41:49.411Z,5.90
2023-04-23T04:44:16.634Z,5.90
2023-04-23T04:46:43.422Z,5.80
2023-04-23T04:49:11.174Z,5.80
2023-04-23T04:51:38.752Z,5.90
2023-04-23T04:54:06.553Z,5.80
2023-04-23T04:56:34.371Z,5.80
2023-04-23T04:59:01.395Z,5.80
2023-04-23T05:01:28.977Z,5.80
2023-04-23T05:03:56.343Z,5.80
2023-04-23T05:06:23.214Z,5.90
2023-04-23T05:08:50.129Z,5.80
2023-04-23T05:11:17.686Z,5.80
2023-04-23T05:13:45.697Z,5.90
2023-04-23T05:16:12.458Z,5.90
2023-04-23T05:18:39.587Z,5.90
2023-04-23T05:21:06.647Z,5.80
2023-04-23T05:23:33.725Z,5.80
2023-04-23T05:26:00.629Z,5.80
2023-04-23T05:28:27.645Z,5.70
2023-04-23T05:30:54.474Z,5.80
2023-04-23T05:33:21.264Z,5.80
2023-04-23T05:35:48.057Z,5.90
2023-04-23T05:38:14.941Z,6.00
2023-04-23T05:40:41.696Z,6.00
2023-04-23T05:43:10.795Z,6.10
2023-04-23T05:45:37.540Z,6.10
2023-04-23T05:48:04.612Z,6.20
2023-04-23T05:50:31.505Z,6.20
2023-04-23T05:52:58.251Z,6.20
2023-04-23T05:55:25.485Z,6.20
2023-04-23T05:57:52.323Z,6.20
2023-04-23T06:00:19.125Z,6.10
2023-04-23T06:02:46.147Z,6.00
2023-04-23T06:05:13.497Z,6.00
2023-04-23T06:07:41.248Z,6.00
2023-04-23T06:10:08.492Z,6.00
2023-04-23T06:12:39.097Z,6.10
2023-04-23T06:15:07.174Z,6.00
2023-04-23T06:17:33.976Z,6.00
2023-04-23T06:20:00.721Z,6.00
2023-04-23T06:22:27.571Z,5.90
2023-04-23T06:24:54.330Z,5.80
2023-04-23T06:27:21.055Z,5.80
2023-04-23T06:29:50.729Z,5.80
2023-04-23T06:32:20.527Z,5.80
2023-04-23T06:35:00.374Z,5.90
2023-04-23T06:37:29.776Z,5.90
2023-04-23T06:39:56.956Z,5.90
2023-04-23T06:42:23.772Z,5.90
2023-04-23T06:45:06.792Z,5.90
2023-04-23T06:47:33.671Z,6.00
2023-04-23T06:50:00.434Z,6.00
2023-04-23T06:52:27.465Z,6.00
2023-04-23T06:54:54.400Z,6.00
2023-04-23T06:57:21.906Z,6.00
2023-04-23T06:59:48.770Z,6.10
2023-04-23T07:02:16.923Z,6.10
2023-04-23T07:04:44.412Z,6.10
2023-04-23T07:07:12.120Z,6.10
2023-04-23T07:09:38.972Z,6.20
2023-04-23T07:12:05.924Z,6.20
2023-04-23T07:14:32.822Z,6.20
2023-04-23T07:16:59.630Z,6.10
2023-04-23T07:19:27.430Z,6.10
2023-04-23T07:21:54.222Z,6.20
2023-04-23T07:24:20.994Z,6.20
2023-04-23T07:26:47.698Z,6.20
2023-04-23T07:29:15.523Z,6.20
2023-04-23T07:31:42.355Z,6.30
2023-04-23T07:34:09.965Z,6.30
2023-04-23T07:36:37.545Z,6.30
2023-04-23T07:39:05.375Z,6.30
2023-04-23T07:41:32.810Z,6.30
2023-04-23T07:43:59.741Z,6.20
2023-04-23T07:46:26.630Z,6.20
2023-04-23T07:48:53.869Z,6.20
2023-04-23T07:51:22.514Z,6.20
2023-04-23T07:53:51.382Z,6.20
2023-04-23T07:56:18.381Z,6.20
2023-04-23T07:58:45.290Z,6.20
2023-04-23T08:01:12.010Z,6.20
2023-04-23T08:03:38.893Z,6.10
2023-04-23T08:06:06.207Z,6.10
2023-04-23T08:08:33.317Z,6.10
2023-04-23T08:11:00.301Z,6.10
2023-04-23T08:13:27.213Z,6.10
2023-04-23T08:15:54.103Z,6.10
2023-04-23T08:18:21.222Z,6.10
2023-04-23T08:20:48.669Z,6.10
2023-04-23T08:23:15.409Z,6.20
2023-04-23T08:25:42.287Z,6.20
2023-04-23T08:28:09.042Z,6.20
2023-04-23T08:30:35.786Z,6.10
2023-04-23T08:33:03.882Z,6.20
2023-04-23T08:35:30.976Z,6.20
2023-04-23T08:37:57.842Z,6.20
2023-04-23T08:40:26.035Z,6.20
2023-04-23T08:42:55.721Z,6.30
2023-04-23T08:45:23.022Z,6.30
2023-04-23T08:47:50.081Z,6.40
2023-04-23T08:50:18.240Z,6.40
2023-04-23T08:52:53.805Z,6.50
2023-04-23T08:55:21.389Z,6.50
2023-04-23T08:57:48.677Z,6.60
2023-04-23T09:00:16.448Z,6.60
2023-04-23T09:02:45.415Z,6.50
2023-04-23T09:05:13.076Z,6.50
2023-04-23T09:07:40.099Z,6.50
2023-04-23T09:10:08.101Z,6.50
2023-04-23T09:12:35.658Z,6.50
2023-04-23T09:15:04.820Z,6.50
2023-04-23T09:17:33.160Z,6.50
2023-04-23T09:20:00.711Z,6.60
2023-04-23T09:22:48.461Z,6.60
2023-04-23T09:25:18.089Z,6.60
2023-04-23T09:27:46.484Z,6.60
2023-04-23T09:30:13.624Z,6.70
2023-04-23T09:32:45.929Z,6.60
2023-04-23T09:35:14.285Z,6.60
2023-04-23T09:37:49.196Z,6.70
2023-04-23T09:40:17.246Z,6.70
2023-04-23T09:42:50.906Z,6.80
2023-04-23T09:45:17.766Z,6.80
2023-04-23T09:47:54.638Z,6.90
2023-04-23T09:50:33.724Z,6.80
2023-04-23T09:53:00.912Z,6.90
2023-04-23T09:55:39.789Z,6.90
2023-04-23T09:58:07.866Z,6.90
2023-04-23T10:00:38.307Z,6.80
2023-04-23T10:03:10.228Z,6.80
2023-04-23T10:08:13.634Z,6.80
2023-04-23T10:10:56.828Z,6.80
2023-04-23T10:13:27.997Z,6.80
2023-04-23T10:15:55.079Z,6.90
2023-04-23T10:18:21.993Z,6.90
2023-04-23T10:20:49.972Z,6.90
2023-04-23T10:23:17.481Z,7.00
2023-04-23T10:25:45.305Z,7.00
2023-04-23T10:28:13.904Z,6.90
2023-04-23T10:30:40.816Z,6.90
2023-04-23T10:33:15.724Z,6.90
2023-04-23T10:35:50.280Z,7.00
2023-04-23T10:38:17.524Z,6.90
2023-04-23T10:40:46.875Z,6.90
2023-04-23T10:43:13.783Z,7.00
2023-04-23T10:45:40.611Z,7.00
2023-04-23T10:48:08.642Z,7.00
2023-04-23T10:50:37.433Z,7.00
2023-04-23T10:53:04.789Z,7.10
2023-04-23T10:55:32.455Z,7.10
2023-04-23T10:58:04.195Z,7.20
2023-04-23T11:00:44.156Z,7.10
2023-04-23T11:03:30.556Z,7.10
2023-04-23T11:05:58.489Z,7.20
2023-04-23T11:08:25.412Z,7.20
2023-04-23T11:10:58.726Z,7.20
2023-04-23T11:13:26.813Z,7.20
2023-04-23T11:16:12.275Z,7.20
2023-04-23T11:18:55.071Z,7.20
2023-04-23T11:21:22.023Z,7.20
2023-04-23T11:23:48.748Z,7.20
2023-04-23T11:26:18.270Z,7.30
2023-04-23T11:28:45.412Z,7.40
2023-04-23T11:31:12.241Z,7.40
2023-04-23T11:33:39.035Z,7.30
2023-04-23T11:36:06.455Z,7.30
2023-04-23T11:38:33.728Z,7.30
2023-04-23T11:41:05.279Z,7.30
2023-04-23T11:43:32.012Z,7.30
2023-04-23T11:46:00.669Z,7.30
2023-04-23T11:48:27.418Z,7.30
2023-04-23T11:50:54.448Z,7.40
2023-04-23T11:53:21.656Z,7.40
2023-04-23T11:55:48.978Z,7.40
2023-04-23T11:58:18.072Z,7.40
2023-04-23T12:00:45.006Z,7.40
2023-04-23T12:03:13.971Z,7.40
2023-04-23T12:05:42.473Z,7.50
2023-04-23T12:08:16.625Z,7.50
2023-04-23T12:10:46.619Z,7.60
2023-04-23T12:13:14.096Z,7.60
2023-04-23T12:15:44.988Z,7.70
2023-04-23T12:18:12.066Z,7.80
2023-04-23T12:20:40.496Z,7.80
2023-04-23T12:23:08.250Z,7.80
2023-04-23T12:25:35.635Z,7.80
2023-04-23T12:28:04.829Z,7.80
2023-04-23T12:30:32.861Z,7.80
2023-04-23T12:33:09.481Z,7.80
2023-04-23T12:35:39.382Z,7.80
2023-04-23T12:38:06.406Z,7.80
2023-04-23T12:40:33.320Z,7.70
2023-04-23T12:43:00.194Z,7.80
2023-04-23T12:45:26.963Z,7.90
2023-04-23T12:47:53.807Z,7.90
2023-04-23T12:50:20.688Z,8.00
2023-04-23T12:52:47.403Z,7.90
2023-04-23T12:55:14.373Z,8.10
2023-04-23T12:57:41.172Z,8.00
2023-04-23T13:00:08.962Z,8.10
2023-04-23T13:02:35.918Z,8.20
2023-04-23T13:05:02.893Z,8.30
2023-04-23T13:07:29.804Z,8.40
2023-04-23T13:09:57.333Z,8.40
2023-04-23T13:12:24.173Z,8.40
2023-04-23T13:14:51.085Z,8.40
2023-04-23T13:17:17.856Z,8.50
2023-04-23T13:19:44.947Z,8.50
2023-04-23T13:22:11.776Z,8.60
2023-04-23T13:24:38.570Z,8.60
2023-04-23T13:27:05.466Z,8.60
2023-04-23T13:29:32.359Z,8.70
2023-04-23T13:31:59.335Z,8.70
2023-04-23T13:34:26.197Z,8.70
2023-04-23T13:36:53.252Z,8.70
2023-04-23T13:39:20.417Z,8.70
2023-04-23T13:41:59.062Z,8.80
2023-04-23T13:44:33.247Z,8.90
2023-04-23T13:47:00.011Z,8.90
2023-04-23T13:49:27.255Z,9.10
2023-04-23T13:51:58.856Z,9.10
2023-04-23T13:54:29.509Z,9.10
2023-04-23T13:56:56.389Z,9.10
2023-04-23T13:59:24.120Z,9.00
2023-04-23T14:01:50.941Z,9.00
2023-04-23T14:04:18.790Z,8.90
2023-04-23T14:06:45.771Z,8.80
2023-04-23T14:09:12.552Z,8.70
2023-04-23T14:11:40.522Z,8.50
2023-04-23T14:14:07.673Z,8.30
2023-04-23T14:16:35.475Z,8.20
2023-04-23T14:19:02.575Z,8.10
2023-04-23T14:21:29.497Z,8.10
2023-04-23T14:23:56.641Z,8.10
2023-04-23T14:29:10.316Z,8.10
2023-04-23T14:31:38.155Z,8.10
2023-04-23T14:34:06.244Z,8.10
2023-04-23T14:36:33.248Z,8.10
2023-04-23T14:39:05.066Z,8.10
2023-04-23T14:41:32.777Z,8.10
2023-04-23T14:44:02.876Z,8.20
2023-04-23T14:46:29.841Z,8.20
2023-04-23T14:48:56.690Z,8.10
2023-04-23T14:51:23.686Z,8.10
2023-04-23T14:53:51.048Z,8.00
2023-04-23T14:56:17.938Z,8.00
2023-04-23T14:58:44.924Z,8.00
2023-04-23T15:01:12.041Z,8.00
2023-04-23T15:03:39.170Z,8.00
2023-04-23T15:06:06.610Z,8.00
2023-04-23T15:08:33.678Z,8.00
2023-04-23T15:11:00.660Z,7.90
2023-04-23T15:13:37.868Z,7.90
2023-04-23T15:16:08.382Z,7.80
2023-04-23T15:18:35.594Z,7.90
2023-04-23T15:21:03.796Z,8.00
2023-04-23T15:23:31.595Z,7.90
2023-04-23T15:25:58.556Z,7.90
2023-04-23T15:28:25.731Z,7.90
2023-04-23T15:30:52.638Z,7.80
2023-04-23T15:33:21.807Z,7.80
2023-04-23T15:35:51.136Z,7.80
2023-04-23T15:38:18.685Z,7.80
2023-04-23T15:40:45.566Z,7.80
2023-04-23T15:43:13.585Z,7.80
2023-04-23T15:45:40.743Z,7.80
2023-04-23T15:48:08.977Z,7.80
2023-04-23T15:50:36.034Z,7.70
2023-04-23T15:53:02.898Z,7.70
2023-04-23T15:55:29.844Z,7.70
2023-04-23T15:57:58.948Z,7.60
2023-04-23T16:00:25.694Z,7.50
2023-04-23T16:02:52.828Z,7.40
2023-04-23T16:05:19.868Z,7.40
2023-04-23T16:07:46.729Z,7.40
2023-04-23T16:10:13.568Z,7.50
2023-04-23T16:12:45.513Z,7.50
2023-04-23T16:17:39.376Z,7.50
2023-04-23T16:20:06.614Z,7.50
2023-04-23T16:22:33.405Z,7.50
2023-04-23T16:25:00.413Z,7.60
2023-04-23T16:27:27.246Z,7.50
2023-04-23T16:29:54.048Z,7.50
2023-04-23T16:32:20.955Z,7.50
2023-04-23T16:34:47.733Z,7.60
2023-04-23T16:37:15.876Z,7.60
2023-04-23T16:39:43.429Z,7.70
2023-04-23T16:42:10.365Z,7.60
2023-04-23T16:44:37.149Z,7.60
2023-04-23T16:47:04.440Z,7.40
2023-04-23T16:49:31.822Z,7.30
2023-04-23T16:51:58.576Z,7.20
2023-04-23T16:54:25.398Z,7.10
2023-04-23T16:56:52.274Z,7.00
2023-04-23T16:59:19.165Z,6.90
2023-04-23T17:01:46.107Z,6.80
2023-04-23T17:04:13.037Z,6.80
2023-04-23T17:06:40.449Z,6.80
2023-04-23T17:09:08.823Z,6.70
2023-04-23T17:11:36.190Z,6.70
2023-04-23T17:14:02.965Z,6.70
2023-04-23T17:16:29.780Z,6.70
2023-04-23T17:18:56.916Z,6.70
2023-04-23T17:21:23.756Z,6.70
2023-04-23T17:23:50.898Z,6.70
2023-04-23T17:26:17.696Z,6.70
2023-04-23T17:28:44.474Z,6.70
2023-04-23T17:31:11.391Z,6.70
2023-04-23T17:33:38.779Z,6.70
2023-04-23T17:36:05.651Z,6.60
2023-04-23T17:38:32.634Z,6.50
2023-04-23T17:40:59.851Z,6.50
2023-04-23T17:43:27.386Z,6.50
2023-04-23T17:45:54.204Z,6.50
2023-04-23T17:48:23.058Z,6.60
2023-04-23T17:50:50.216Z,6.50
2023-04-23T17:53:17.118Z,6.50
2023-04-23T17:55:44.056Z,6.50
2023-04-23T17:58:10.799Z,6.50
2023-04-23T18:00:38.729Z,6.50
2023-04-23T18:03:07.444Z,6.50
2023-04-23T18:05:34.336Z,6.40
2023-04-23T18:08:01.341Z,6.40
2023-04-23T18:10:28.889Z,6.40
2023-04-23T18:12:56.181Z,6.40
2023-04-23T18:15:23.259Z,6.40
2023-04-23T18:17:50.688Z,6.40
2023-04-23T18:20:17.505Z,6.40
2023-04-23T18:22:44.378Z,6.40
2023-04-23T18:25:11.774Z,6.30
2023-04-23T18:27:39.076Z,6.40
2023-04-23T18:30:06.626Z,6.30
2023-04-23T18:32:41.573Z,6.30
2023-04-23T18:35:09.311Z,6.40
2023-04-23T18:37:39.123Z,6.30
2023-04-23T18:40:06.067Z,6.30
2023-04-23T18:42:33.279Z,6.30
2023-04-23T18:45:00.231Z,6.30
2023-04-23T18:47:30.882Z,6.30
2023-04-23T18:50:01.133Z,6.30
2023-04-23T18:52:28.186Z,6.20
2023-04-23T18:54:54.875Z,6.30
2023-04-23T18:57:21.624Z,6.30
2023-04-23T18:59:48.541Z,6.30
2023-04-23T19:02:28.108Z,6.30
2023-04-23T19:05:01.701Z,6.40
2023-04-23T19:07:28.653Z,6.30
2023-04-23T19:09:55.637Z,6.30
2023-04-23T19:12:22.361Z,6.30
2023-04-23T19:14:49.152Z,6.30
2023-04-23T19:17:18.672Z,6.40
2023-04-23T19:19:46.125Z,6.30
2023-04-23T19:22:12.970Z,6.40
2023-04-23T19:24:39.707Z,6.30
2023-04-23T19:27:07.241Z,6.30
2023-04-23T19:29:34.020Z,6.20
2023-04-23T19:32:01.080Z,6.20
2023-04-23T19:34:27.927Z,6.20
2023-04-23T19:36:54.751Z,6.40
2023-04-23T19:39:23.753Z,6.40
2023-04-23T19:41:50.734Z,6.40
2023-04-23T19:44:17.549Z,6.40
2023-04-23T19:46:44.436Z,6.40
2023-04-23T19:49:11.292Z,6.40
2023-04-23T19:51:38.533Z,6.40
2023-04-23T19:54:06.220Z,6.40
2023-04-23T19:56:32.968Z,6.40
2023-04-23T19:58:59.871Z,6.50
2023-04-23T20:01:28.227Z,6.50
2023-04-23T20:03:55.803Z,6.50
2023-04-23T20:06:22.690Z,6.50
2023-04-23T20:09:07.537Z,6.50
2023-04-23T20:11:35.665Z,6.50
2023-04-23T20:14:03.733Z,6.40
2023-04-23T20:16:30.806Z,6.40
2023-04-23T20:18:57.871Z,6.30
2023-04-23T20:21:24.945Z,6.30
2023-04-23T20:23:51.771Z,6.30
2023-04-23T20:26:19.465Z,6.30
2023-04-23T20:28:50.200Z,6.20
2023-04-23T20:31:18.035Z,6.20
2023-04-23T20:33:46.362Z,6.20
2023-04-23T20:36:13.156Z,6.20
2023-04-23T20:38:39.912Z,6.10
2023-04-23T20:41:10.058Z,6.10
2023-04-23T20:43:39.705Z,6.00
2023-04-23T20:46:10.410Z,6.00
2023-04-23T20:48:37.360Z,6.00
2023-04-23T20:51:05.409Z,6.00
2023-04-23T20:53:32.219Z,6.00
2023-04-23T20:55:59.032Z,5.90
2023-04-23T20:58:25.819Z,6.00
2023-04-23T21:00:52.662Z,6.00
2023-04-23T21:03:19.855Z,6.00
2023-04-23T21:05:46.837Z,5.90
2023-04-23T21:08:13.891Z,5.90
2023-04-23T21:10:41.290Z,6.00
2023-04-23T21:13:09.886Z,6.00
2023-04-23T21:15:37.404Z,6.00
2023-04-23T21:18:04.459Z,6.00
2023-04-23T21:20:31.352Z,6.00
2023-04-23T21:22:58.169Z,6.00
2023-04-23T21:25:26.753Z,6.00
2023-04-23T21:27:56.983Z,5.90
2023-04-23T21:30:35.838Z,5.90
2023-04-23T21:33:02.755Z,5.90
2023-04-23T21:35:29.583Z,5.90
2023-04-23T21:37:56.330Z,5.90
2023-04-23T21:40:23.115Z,5.90
2023-04-23T21:42:50.149Z,5.90
2023-04-23T21:45:17.690Z,5.80
2023-04-23T21:47:44.641Z,5.70
2023-04-23T21:50:11.777Z,5.70
2023-04-23T21:52:38.763Z,5.80
2023-04-23T21:55:06.426Z,5.80
2023-04-23T21:57:33.483Z,5.80
2023-04-23T22:00:00.735Z,5.80
2023-04-23T22:02:27.685Z,5.80
2023-04-23T22:04:54.603Z,5.80
2023-04-23T22:07:21.480Z,5.80
2023-04-23T22:09:48.365Z,5.80
2023-04-23T22:12:15.197Z,5.80
2023-04-23T22:14:42.064Z,5.80
2023-04-23T22:17:09.154Z,5.70
2023-04-23T22:19:36.092Z,5.70
2023-04-23T22:22:02.998Z,5.70
2023-04-23T22:24:29.871Z,5.70
2023-04-23T22:26:58.174Z,5.80
2023-04-23T22:29:25.136Z,5.80
2023-04-23T22:31:51.948Z,5.80
2023-04-23T22:34:19.452Z,5.90
2023-04-23T22:36:46.503Z,5.90
2023-04-23T22:39:13.590Z,5.90
2023-04-23T22:41:40.575Z,5.80
2023-04-23T22:44:07.400Z,5.90
2023-04-23T22:46:34.322Z,5.80
2023-04-23T22:49:01.402Z,5.80
2023-04-23T22:51:28.306Z,5.80
2023-04-23T22:53:55.235Z,5.80
2023-04-23T22:56:22.112Z,5.80
2023-04-23T22:58:48.889Z,5.80
2023-04-23T23:01:16.809Z,5.80
2023-04-23T23:03:43.895Z,5.90
2023-04-23T23:06:10.763Z,5.80
2023-04-23T23:08:37.541Z,5.80
2023-04-23T23:11:04.452Z,5.80
2023-04-23T23:13:31.308Z,5.70
2023-04-23T23:16:00.697Z,5.70
2023-04-23T23:18:27.762Z,5.60
2023-04-23T23:20:54.494Z,5.60
2023-04-23T23:23:21.400Z,5.70
2023-04-23T23:25:48.220Z,5.80
2023-04-23T23:28:14.937Z,5.90
2023-04-23T23:30:41.912Z,5.80
2023-04-23T23:33:09.831Z,5.80
2023-04-23T23:35:36.796Z,5.80
2023-04-23T23:38:03.852Z,5.80
2023-04-23T23:40:30.844Z,5.80
2023-04-23T23:42:57.987Z,5.70
2023-04-23T23:45:25.064Z,5.70
2023-04-23T23:47:52.541Z,5.70
2023-04-23T23:50:19.492Z,5.80
2023-04-23T23:52:46.381Z,5.70
2023-04-23T23:55:13.348Z,5.60
2023-04-23T23:57:40.161Z,5.60
